sensor_id;sensor_type;location;lat;lon;timestamp;temperature;humidity
55777;DHT22;54079;44.540;18.784;2023-05-07T00:02:00;14.10;79.30
55777;DHT22;54079;44.540;18.784;2023-05-07T00:04:26;14.10;80.10
55777;DHT22;54079;44.540;18.784;2023-05-07T00:06:53;14.10;80.00
55777;DHT22;54079;44.540;18.784;2023-05-07T00:09:19;14.10;80.40
55777;DHT22;54079;44.540;18.784;2023-05-07T00:11:45;14.10;80.20
55777;DHT22;54079;44.540;18.784;2023-05-07T00:14:11;14.10;79.60
55777;DHT22;54079;44.540;18.784;2023-05-07T00:16:37;14.00;79.50
55777;DHT22;54079;44.540;18.784;2023-05-07T00:19:03;14.00;79.40
55777;DHT22;54079;44.540;18.784;2023-05-07T00:21:29;14.00;79.70
55777;DHT22;54079;44.540;18.784;2023-05-07T00:23:56;14.00;80.60
55777;DHT22;54079;44.540;18.784;2023-05-07T00:26:22;13.90;81.20
55777;DHT22;54079;44.540;18.784;2023-05-07T00:28:48;13.90;80.90
55777;DHT22;54079;44.540;18.784;2023-05-07T00:31:14;13.90;81.20
55777;DHT22;54079;44.540;18.784;2023-05-07T00:33:40;13.80;81.40
55777;DHT22;54079;44.540;18.784;2023-05-07T00:36:06;14.00;80.90
55777;DHT22;54079;44.540;18.784;2023-05-07T00:38:32;14.20;80.10
55777;DHT22;54079;44.540;18.784;2023-05-07T00:40:58;14.20;79.90
55777;DHT22;54079;44.540;18.784;2023-05-07T00:43:24;14.10;80.20
55777;DHT22;54079;44.540;18.784;2023-05-07T00:45:50;14.10;80.80
55777;DHT22;54079;44.540;18.784;2023-05-07T00:48:16;14.00;81.90
55777;DHT22;54079;44.540;18.784;2023-05-07T00:50:42;13.90;81.40
55777;DHT22;54079;44.540;18.784;2023-05-07T00:53:08;13.80;82.20
55777;DHT22;54079;44.540;18.784;2023-05-07T00:55:35;13.80;81.50
55777;DHT22;54079;44.540;18.784;2023-05-07T00:58:02;13.80;82.30
55777;DHT22;54079;44.540;18.784;2023-05-07T01:00:28;13.70;81.90
55777;DHT22;54079;44.540;18.784;2023-05-07T01:02:54;13.60;82.30
55777;DHT22;54079;44.540;18.784;2023-05-07T01:05:23;13.70;82.40
55777;DHT22;54079;44.540;18.784;2023-05-07T01:07:50;13.70;82.80
55777;DHT22;54079;44.540;18.784;2023-05-07T01:10:18;13.70;82.70
55777;DHT22;54079;44.540;18.784;2023-05-07T01:12:44;13.60;82.30
55777;DHT22;54079;44.540;18.784;2023-05-07T01:15:11;13.60;82.20
55777;DHT22;54079;44.540;18.784;2023-05-07T01:17:39;13.50;82.30
55777;DHT22;54079;44.540;18.784;2023-05-07T01:20:06;13.50;83.10
55777;DHT22;54079;44.540;18.784;2023-05-07T01:22:34;13.40;83.60
55777;DHT22;54079;44.540;18.784;2023-05-07T01:25:00;13.30;83.90
55777;DHT22;54079;44.540;18.784;2023-05-07T01:27:27;13.30;84.60
55777;DHT22;54079;44.540;18.784;2023-05-07T01:29:53;13.30;85.90
55777;DHT22;54079;44.540;18.784;2023-05-07T01:32:32;13.20;85.80
55777;DHT22;54079;44.540;18.784;2023-05-07T01:35:00;13.20;86.40
55777;DHT22;54079;44.540;18.784;2023-05-07T01:37:26;13.30;87.70
55777;DHT22;54079;44.540;18.784;2023-05-07T01:39:53;13.30;87.10
55777;DHT22;54079;44.540;18.784;2023-05-07T01:42:19;13.20;87.60
55777;DHT22;54079;44.540;18.784;2023-05-07T01:44:46;13.10;88.70
55777;DHT22;54079;44.540;18.784;2023-05-07T01:47:13;13.10;89.10
55777;DHT22;54079;44.540;18.784;2023-05-07T01:49:40;13.00;89.20
55777;DHT22;54079;44.540;18.784;2023-05-07T01:52:06;13.00;89.30
55777;DHT22;54079;44.540;18.784;2023-05-07T01:54:32;13.00;89.10
55777;DHT22;54079;44.540;18.784;2023-05-07T01:56:58;13.00;90.20
55777;DHT22;54079;44.540;18.784;2023-05-07T01:59:24;13.00;90.70
55777;DHT22;54079;44.540;18.784;2023-05-07T02:01:50;13.00;90.20
55777;DHT22;54079;44.540;18.784;2023-05-07T02:04:17;13.00;90.40
55777;DHT22;54079;44.540;18.784;2023-05-07T02:06:43;13.00;90.00
55777;DHT22;54079;44.540;18.784;2023-05-07T02:09:09;12.90;90.10
55777;DHT22;54079;44.540;18.784;2023-05-07T02:11:35;13.00;90.30
55777;DHT22;54079;44.540;18.784;2023-05-07T02:14:01;12.90;90.00
55777;DHT22;54079;44.540;18.784;2023-05-07T02:16:27;12.90;89.70
55777;DHT22;54079;44.540;18.784;2023-05-07T02:18:53;12.90;89.80
55777;DHT22;54079;44.540;18.784;2023-05-07T02:21:19;12.80;90.10
55777;DHT22;54079;44.540;18.784;2023-05-07T02:23:45;12.80;91.10
55777;DHT22;54079;44.540;18.784;2023-05-07T02:26:11;12.80;91.70
55777;DHT22;54079;44.540;18.784;2023-05-07T02:28:37;12.80;90.70
55777;DHT22;54079;44.540;18.784;2023-05-07T02:31:03;12.70;91.40
55777;DHT22;54079;44.540;18.784;2023-05-07T02:33:30;12.70;91.60
55777;DHT22;54079;44.540;18.784;2023-05-07T02:35:56;12.70;92.00
55777;DHT22;54079;44.540;18.784;2023-05-07T02:38:22;12.60;92.10
55777;DHT22;54079;44.540;18.784;2023-05-07T02:40:48;12.60;92.20
55777;DHT22;54079;44.540;18.784;2023-05-07T02:43:14;12.60;92.40
55777;DHT22;54079;44.540;18.784;2023-05-07T02:45:40;12.70;92.90
55777;DHT22;54079;44.540;18.784;2023-05-07T02:48:06;12.70;93.50
55777;DHT22;54079;44.540;18.784;2023-05-07T02:50:32;12.70;93.20
55777;DHT22;54079;44.540;18.784;2023-05-07T02:52:58;12.80;93.10
55777;DHT22;54079;44.540;18.784;2023-05-07T02:55:24;12.70;93.30
55777;DHT22;54079;44.540;18.784;2023-05-07T02:57:50;12.60;93.10
55777;DHT22;54079;44.540;18.784;2023-05-07T03:00:17;12.70;93.80
55777;DHT22;54079;44.540;18.784;2023-05-07T03:02:46;12.80;93.80
55777;DHT22;54079;44.540;18.784;2023-05-07T03:05:12;12.80;93.20
55777;DHT22;54079;44.540;18.784;2023-05-07T03:07:39;12.80;92.10
55777;DHT22;54079;44.540;18.784;2023-05-07T03:10:09;12.70;92.30
55777;DHT22;54079;44.540;18.784;2023-05-07T03:12:35;12.70;93.30
55777;DHT22;54079;44.540;18.784;2023-05-07T03:15:01;12.70;93.80
55777;DHT22;54079;44.540;18.784;2023-05-07T03:17:27;12.70;93.50
55777;DHT22;54079;44.540;18.784;2023-05-07T03:19:53;12.70;93.10
55777;DHT22;54079;44.540;18.784;2023-05-07T03:22:19;12.70;92.90
55777;DHT22;54079;44.540;18.784;2023-05-07T03:24:46;12.60;92.60
55777;DHT22;54079;44.540;18.784;2023-05-07T03:27:11;12.60;94.20
55777;DHT22;54079;44.540;18.784;2023-05-07T03:29:37;12.60;94.80
55777;DHT22;54079;44.540;18.784;2023-05-07T03:32:03;12.60;93.70
55777;DHT22;54079;44.540;18.784;2023-05-07T03:34:30;12.60;94.30
55777;DHT22;54079;44.540;18.784;2023-05-07T03:36:55;12.60;94.80
55777;DHT22;54079;44.540;18.784;2023-05-07T03:39:21;12.70;94.70
55777;DHT22;54079;44.540;18.784;2023-05-07T03:41:47;12.80;94.20
55777;DHT22;54079;44.540;18.784;2023-05-07T03:44:13;12.80;93.80
55777;DHT22;54079;44.540;18.784;2023-05-07T03:46:39;12.80;92.50
55777;DHT22;54079;44.540;18.784;2023-05-07T03:49:05;12.70;92.50
55777;DHT22;54079;44.540;18.784;2023-05-07T03:51:31;12.80;93.20
55777;DHT22;54079;44.540;18.784;2023-05-07T03:53:57;12.80;93.60
55777;DHT22;54079;44.540;18.784;2023-05-07T03:56:23;12.90;93.60
55777;DHT22;54079;44.540;18.784;2023-05-07T03:58:52;13.00;93.40
55777;DHT22;54079;44.540;18.784;2023-05-07T04:01:18;13.10;92.60
55777;DHT22;54079;44.540;18.784;2023-05-07T04:03:44;13.10;93.10
55777;DHT22;54079;44.540;18.784;2023-05-07T04:06:10;13.30;92.90
55777;DHT22;54079;44.540;18.784;2023-05-07T04:08:36;13.50;92.60
55777;DHT22;54079;44.540;18.784;2023-05-07T04:11:02;13.50;91.60
55777;DHT22;54079;44.540;18.784;2023-05-07T04:13:28;13.60;91.40
55777;DHT22;54079;44.540;18.784;2023-05-07T04:15:55;13.60;91.10
55777;DHT22;54079;44.540;18.784;2023-05-07T04:18:21;13.60;91.10
55777;DHT22;54079;44.540;18.784;2023-05-07T04:20:48;13.60;91.00
55777;DHT22;54079;44.540;18.784;2023-05-07T04:23:15;13.80;90.70
55777;DHT22;54079;44.540;18.784;2023-05-07T04:25:41;13.90;90.40
55777;DHT22;54079;44.540;18.784;2023-05-07T04:28:07;14.00;90.60
55777;DHT22;54079;44.540;18.784;2023-05-07T04:30:33;14.10;90.40
55777;DHT22;54079;44.540;18.784;2023-05-07T04:32:59;14.30;90.20
55777;DHT22;54079;44.540;18.784;2023-05-07T04:35:25;14.40;90.00
55777;DHT22;54079;44.540;18.784;2023-05-07T04:37:50;14.60;88.90
55777;DHT22;54079;44.540;18.784;2023-05-07T04:40:16;15.00;88.00
55777;DHT22;54079;44.540;18.784;2023-05-07T04:42:42;15.80;85.50
55777;DHT22;54079;44.540;18.784;2023-05-07T04:45:08;18.30;81.10
55777;DHT22;54079;44.540;18.784;2023-05-07T04:47:36;20.60;73.00
55777;DHT22;54079;44.540;18.784;2023-05-07T04:50:02;22.60;69.30
55777;DHT22;54079;44.540;18.784;2023-05-07T04:52:28;23.50;65.30
55777;DHT22;54079;44.540;18.784;2023-05-07T04:54:54;23.20;65.20
55777;DHT22;54079;44.540;18.784;2023-05-07T04:57:20;23.50;64.40
55777;DHT22;54079;44.540;18.784;2023-05-07T04:59:46;23.80;64.20
55777;DHT22;54079;44.540;18.784;2023-05-07T05:02:11;23.90;62.90
55777;DHT22;54079;44.540;18.784;2023-05-07T05:04:37;25.60;61.10
55777;DHT22;54079;44.540;18.784;2023-05-07T05:07:03;28.30;58.80
55777;DHT22;54079;44.540;18.784;2023-05-07T05:09:30;30.30;56.10
55777;DHT22;54079;44.540;18.784;2023-05-07T05:11:56;31.40;53.50
55777;DHT22;54079;44.540;18.784;2023-05-07T05:14:22;32.50;51.90
55777;DHT22;54079;44.540;18.784;2023-05-07T05:16:48;33.70;50.20
55777;DHT22;54079;44.540;18.784;2023-05-07T05:19:13;34.50;49.50
55777;DHT22;54079;44.540;18.784;2023-05-07T05:21:39;35.00;49.00
55777;DHT22;54079;44.540;18.784;2023-05-07T05:24:05;35.60;47.90
55777;DHT22;54079;44.540;18.784;2023-05-07T05:26:31;36.40;47.10
55777;DHT22;54079;44.540;18.784;2023-05-07T05:28:57;36.70;46.70
55777;DHT22;54079;44.540;18.784;2023-05-07T05:31:23;37.40;46.50
55777;DHT22;54079;44.540;18.784;2023-05-07T05:33:49;38.70;45.50
55777;DHT22;54079;44.540;18.784;2023-05-07T05:36:15;39.50;44.90
55777;DHT22;54079;44.540;18.784;2023-05-07T05:38:41;40.50;44.10
55777;DHT22;54079;44.540;18.784;2023-05-07T05:41:07;41.00;43.50
55777;DHT22;54079;44.540;18.784;2023-05-07T05:43:33;41.30;43.00
55777;DHT22;54079;44.540;18.784;2023-05-07T05:45:59;41.80;42.20
55777;DHT22;54079;44.540;18.784;2023-05-07T05:48:26;41.80;42.70
55777;DHT22;54079;44.540;18.784;2023-05-07T05:50:51;42.30;42.20
55777;DHT22;54079;44.540;18.784;2023-05-07T05:53:18;42.60;40.90
55777;DHT22;54079;44.540;18.784;2023-05-07T05:55:44;42.80;40.80
55777;DHT22;54079;44.540;18.784;2023-05-07T05:58:10;43.10;40.60
55777;DHT22;54079;44.540;18.784;2023-05-07T06:00:36;43.70;40.60
55777;DHT22;54079;44.540;18.784;2023-05-07T06:03:02;43.80;40.70
55777;DHT22;54079;44.540;18.784;2023-05-07T06:05:28;43.90;40.30
55777;DHT22;54079;44.540;18.784;2023-05-07T06:07:53;44.00;40.50
55777;DHT22;54079;44.540;18.784;2023-05-07T06:10:20;44.90;40.60
55777;DHT22;54079;44.540;18.784;2023-05-07T06:12:49;44.70;40.20
55777;DHT22;54079;44.540;18.784;2023-05-07T06:15:15;45.10;40.80
55777;DHT22;54079;44.540;18.784;2023-05-07T06:17:41;45.70;40.60
55777;DHT22;54079;44.540;18.784;2023-05-07T06:20:07;46.10;40.80
55777;DHT22;54079;44.540;18.784;2023-05-07T06:22:34;46.60;39.90
55777;DHT22;54079;44.540;18.784;2023-05-07T06:25:00;46.90;39.80
55777;DHT22;54079;44.540;18.784;2023-05-07T06:27:26;47.30;39.40
55777;DHT22;54079;44.540;18.784;2023-05-07T06:29:53;48.30;39.00
55777;DHT22;54079;44.540;18.784;2023-05-07T06:32:19;48.60;38.70
55777;DHT22;54079;44.540;18.784;2023-05-07T06:34:45;49.10;37.70
55777;DHT22;54079;44.540;18.784;2023-05-07T06:37:10;49.00;37.70
55777;DHT22;54079;44.540;18.784;2023-05-07T06:39:36;49.20;37.50
55777;DHT22;54079;44.540;18.784;2023-05-07T06:42:02;49.50;37.80
55777;DHT22;54079;44.540;18.784;2023-05-07T06:44:30;49.60;38.10
55777;DHT22;54079;44.540;18.784;2023-05-07T06:46:57;49.50;38.00
55777;DHT22;54079;44.540;18.784;2023-05-07T06:49:23;50.10;37.80
55777;DHT22;54079;44.540;18.784;2023-05-07T06:51:48;50.80;37.30
55777;DHT22;54079;44.540;18.784;2023-05-07T06:54:15;50.30;36.90
55777;DHT22;54079;44.540;18.784;2023-05-07T06:56:40;50.90;37.30
55777;DHT22;54079;44.540;18.784;2023-05-07T06:59:07;51.10;37.10
55777;DHT22;54079;44.540;18.784;2023-05-07T07:01:33;50.70;37.20
55777;DHT22;54079;44.540;18.784;2023-05-07T07:03:59;51.20;37.60
55777;DHT22;54079;44.540;18.784;2023-05-07T07:06:24;51.60;36.90
55777;DHT22;54079;44.540;18.784;2023-05-07T07:08:51;51.10;36.60
55777;DHT22;54079;44.540;18.784;2023-05-07T07:11:16;51.10;36.90
55777;DHT22;54079;44.540;18.784;2023-05-07T07:13:42;51.70;36.80
55777;DHT22;54079;44.540;18.784;2023-05-07T07:16:08;51.40;36.60
55777;DHT22;54079;44.540;18.784;2023-05-07T07:18:34;51.70;36.80
55777;DHT22;54079;44.540;18.784;2023-05-07T07:21:01;52.20;37.20
55777;DHT22;54079;44.540;18.784;2023-05-07T07:23:27;52.30;36.60
55777;DHT22;54079;44.540;18.784;2023-05-07T07:25:53;52.30;36.40
55777;DHT22;54079;44.540;18.784;2023-05-07T07:28:20;53.00;36.00
55777;DHT22;54079;44.540;18.784;2023-05-07T07:30:46;53.10;36.10
55777;DHT22;54079;44.540;18.784;2023-05-07T07:33:12;53.40;36.30
55777;DHT22;54079;44.540;18.784;2023-05-07T07:35:38;53.00;35.70
55777;DHT22;54079;44.540;18.784;2023-05-07T07:38:04;52.30;35.80
55777;DHT22;54079;44.540;18.784;2023-05-07T07:40:30;52.00;36.20
55777;DHT22;54079;44.540;18.784;2023-05-07T07:42:56;52.10;36.30
55777;DHT22;54079;44.540;18.784;2023-05-07T07:45:22;52.20;35.60
55777;DHT22;54079;44.540;18.784;2023-05-07T07:47:48;52.10;35.90
55777;DHT22;54079;44.540;18.784;2023-05-07T07:50:14;52.30;36.10
55777;DHT22;54079;44.540;18.784;2023-05-07T07:52:40;52.40;35.30
55777;DHT22;54079;44.540;18.784;2023-05-07T07:55:06;49.20;35.50
55777;DHT22;54079;44.540;18.784;2023-05-07T07:57:33;49.00;36.40
55777;DHT22;54079;44.540;18.784;2023-05-07T07:59:59;50.00;36.10
55777;DHT22;54079;44.540;18.784;2023-05-07T08:02:24;51.00;35.90
55777;DHT22;54079;44.540;18.784;2023-05-07T08:04:50;51.60;36.20
55777;DHT22;54079;44.540;18.784;2023-05-07T08:07:16;52.50;35.90
55777;DHT22;54079;44.540;18.784;2023-05-07T08:09:46;52.40;35.40
55777;DHT22;54079;44.540;18.784;2023-05-07T08:12:12;52.60;36.10
55777;DHT22;54079;44.540;18.784;2023-05-07T08:14:38;52.60;35.50
55777;DHT22;54079;44.540;18.784;2023-05-07T08:17:04;52.70;35.50
55777;DHT22;54079;44.540;18.784;2023-05-07T08:19:30;52.50;34.80
55777;DHT22;54079;44.540;18.784;2023-05-07T08:21:56;53.00;35.00
55777;DHT22;54079;44.540;18.784;2023-05-07T08:24:22;53.10;34.60
55777;DHT22;54079;44.540;18.784;2023-05-07T08:26:48;53.40;34.60
55777;DHT22;54079;44.540;18.784;2023-05-07T08:29:15;53.00;34.50
55777;DHT22;54079;44.540;18.784;2023-05-07T08:31:41;52.50;35.00
55777;DHT22;54079;44.540;18.784;2023-05-07T08:34:07;53.30;34.50
55777;DHT22;54079;44.540;18.784;2023-05-07T08:36:33;52.80;34.60
55777;DHT22;54079;44.540;18.784;2023-05-07T08:38:59;52.80;35.20
55777;DHT22;54079;44.540;18.784;2023-05-07T08:41:25;52.70;34.90
55777;DHT22;54079;44.540;18.784;2023-05-07T08:43:51;53.10;35.20
55777;DHT22;54079;44.540;18.784;2023-05-07T08:46:22;53.20;35.10
55777;DHT22;54079;44.540;18.784;2023-05-07T08:48:49;53.60;34.30
55777;DHT22;54079;44.540;18.784;2023-05-07T08:51:19;53.20;34.70
55777;DHT22;54079;44.540;18.784;2023-05-07T08:53:47;53.10;34.90
55777;DHT22;54079;44.540;18.784;2023-05-07T08:56:16;53.10;34.80
55777;DHT22;54079;44.540;18.784;2023-05-07T08:58:43;52.80;34.00
55777;DHT22;54079;44.540;18.784;2023-05-07T09:01:12;52.60;34.90
55777;DHT22;54079;44.540;18.784;2023-05-07T09:03:39;52.60;34.60
55777;DHT22;54079;44.540;18.784;2023-05-07T09:06:05;51.60;34.20
55777;DHT22;54079;44.540;18.784;2023-05-07T09:08:33;51.30;34.40
55777;DHT22;54079;44.540;18.784;2023-05-07T09:10:59;47.60;34.90
55777;DHT22;54079;44.540;18.784;2023-05-07T09:13:27;42.60;36.40
55777;DHT22;54079;44.540;18.784;2023-05-07T09:15:53;39.50;38.50
55777;DHT22;54079;44.540;18.784;2023-05-07T09:18:19;37.40;40.00
55777;DHT22;54079;44.540;18.784;2023-05-07T09:20:45;36.60;39.70
55777;DHT22;54079;44.540;18.784;2023-05-07T09:23:11;35.80;41.40
55777;DHT22;54079;44.540;18.784;2023-05-07T09:25:37;35.20;42.20
55777;DHT22;54079;44.540;18.784;2023-05-07T09:28:04;34.60;42.30
55777;DHT22;54079;44.540;18.784;2023-05-07T09:30:33;34.20;43.00
55777;DHT22;54079;44.540;18.784;2023-05-07T09:33:02;33.70;43.00
55777;DHT22;54079;44.540;18.784;2023-05-07T09:35:29;32.90;41.50
55777;DHT22;54079;44.540;18.784;2023-05-07T09:37:57;32.30;43.20
55777;DHT22;54079;44.540;18.784;2023-05-07T09:40:24;32.10;43.80
55777;DHT22;54079;44.540;18.784;2023-05-07T09:42:50;32.00;45.00
55777;DHT22;54079;44.540;18.784;2023-05-07T09:45:28;32.00;43.90
55777;DHT22;54079;44.540;18.784;2023-05-07T09:47:55;32.10;44.40
55777;DHT22;54079;44.540;18.784;2023-05-07T09:50:26;32.20;43.00
55777;DHT22;54079;44.540;18.784;2023-05-07T09:52:54;31.80;43.70
55777;DHT22;54079;44.540;18.784;2023-05-07T09:55:21;31.20;44.70
55777;DHT22;54079;44.540;18.784;2023-05-07T09:57:50;31.30;46.40
55777;DHT22;54079;44.540;18.784;2023-05-07T10:00:21;31.50;45.80
55777;DHT22;54079;44.540;18.784;2023-05-07T10:02:49;31.50;46.40
55777;DHT22;54079;44.540;18.784;2023-05-07T10:05:17;31.60;46.50
55777;DHT22;54079;44.540;18.784;2023-05-07T10:07:44;31.60;46.20
55777;DHT22;54079;44.540;18.784;2023-05-07T10:10:10;31.70;46.10
55777;DHT22;54079;44.540;18.784;2023-05-07T10:12:36;31.90;46.20
55777;DHT22;54079;44.540;18.784;2023-05-07T10:15:11;31.60;45.70
55777;DHT22;54079;44.540;18.784;2023-05-07T10:17:39;31.50;44.60
55777;DHT22;54079;44.540;18.784;2023-05-07T10:20:06;31.40;44.30
55777;DHT22;54079;44.540;18.784;2023-05-07T10:22:47;31.30;44.80
55777;DHT22;54079;44.540;18.784;2023-05-07T10:25:32;31.30;44.90
55777;DHT22;54079;44.540;18.784;2023-05-07T10:28:05;31.20;45.80
55777;DHT22;54079;44.540;18.784;2023-05-07T10:33:29;31.30;45.70
55777;DHT22;54079;44.540;18.784;2023-05-07T10:35:58;31.50;45.20
55777;DHT22;54079;44.540;18.784;2023-05-07T10:38:27;31.60;46.50
55777;DHT22;54079;44.540;18.784;2023-05-07T10:40:53;31.60;45.90
55777;DHT22;54079;44.540;18.784;2023-05-07T10:43:19;31.70;46.40
55777;DHT22;54079;44.540;18.784;2023-05-07T10:46:17;31.60;44.30
55777;DHT22;54079;44.540;18.784;2023-05-07T10:51:32;31.70;45.00
55777;DHT22;54079;44.540;18.784;2023-05-07T10:56:37;31.50;44.00
55777;DHT22;54079;44.540;18.784;2023-05-07T11:01:58;31.10;46.00
55777;DHT22;54079;44.540;18.784;2023-05-07T11:04:25;31.40;45.40
55777;DHT22;54079;44.540;18.784;2023-05-07T11:15:10;30.40;45.40
55777;DHT22;54079;44.540;18.784;2023-05-07T11:17:59;29.90;46.70
55777;DHT22;54079;44.540;18.784;2023-05-07T11:20:44;30.00;46.30
55777;DHT22;54079;44.540;18.784;2023-05-07T11:26:09;29.40;47.20
55777;DHT22;54079;44.540;18.784;2023-05-07T11:28:38;28.80;46.70
55777;DHT22;54079;44.540;18.784;2023-05-07T11:31:04;29.00;48.00
55777;DHT22;54079;44.540;18.784;2023-05-07T11:33:31;29.00;46.90
55777;DHT22;54079;44.540;18.784;2023-05-07T11:35:57;29.30;47.30
55777;DHT22;54079;44.540;18.784;2023-05-07T11:38:24;29.50;47.20
55777;DHT22;54079;44.540;18.784;2023-05-07T11:40:55;29.30;47.00
55777;DHT22;54079;44.540;18.784;2023-05-07T11:43:22;29.30;46.00
55777;DHT22;54079;44.540;18.784;2023-05-07T11:45:48;29.10;46.70
55777;DHT22;54079;44.540;18.784;2023-05-07T11:48:15;29.30;47.10
55777;DHT22;54079;44.540;18.784;2023-05-07T11:51:01;29.60;47.50
55777;DHT22;54079;44.540;18.784;2023-05-07T11:53:34;29.30;49.20
55777;DHT22;54079;44.540;18.784;2023-05-07T11:56:05;29.30;47.90
55777;DHT22;54079;44.540;18.784;2023-05-07T11:58:31;29.20;47.20
55777;DHT22;54079;44.540;18.784;2023-05-07T12:00:57;29.30;47.50
55777;DHT22;54079;44.540;18.784;2023-05-07T12:03:23;29.50;47.10
55777;DHT22;54079;44.540;18.784;2023-05-07T12:05:49;29.70;47.20
55777;DHT22;54079;44.540;18.784;2023-05-07T12:08:19;29.90;47.90
55777;DHT22;54079;44.540;18.784;2023-05-07T12:10:48;29.50;46.20
55777;DHT22;54079;44.540;18.784;2023-05-07T12:13:18;29.70;47.00
55777;DHT22;54079;44.540;18.784;2023-05-07T12:15:44;29.60;47.20
55777;DHT22;54079;44.540;18.784;2023-05-07T12:18:11;29.60;47.70
55777;DHT22;54079;44.540;18.784;2023-05-07T12:20:37;29.30;46.70
55777;DHT22;54079;44.540;18.784;2023-05-07T12:23:04;29.50;46.80
55777;DHT22;54079;44.540;18.784;2023-05-07T12:25:34;29.60;47.00
55777;DHT22;54079;44.540;18.784;2023-05-07T12:28:01;29.40;46.30
55777;DHT22;54079;44.540;18.784;2023-05-07T12:30:27;29.50;47.50
55777;DHT22;54079;44.540;18.784;2023-05-07T12:32:54;29.40;47.00
55777;DHT22;54079;44.540;18.784;2023-05-07T12:35:27;29.10;47.00
55777;DHT22;54079;44.540;18.784;2023-05-07T12:37:59;29.10;48.10
55777;DHT22;54079;44.540;18.784;2023-05-07T12:40:37;29.10;47.70
55777;DHT22;54079;44.540;18.784;2023-05-07T12:43:03;28.90;47.60
55777;DHT22;54079;44.540;18.784;2023-05-07T12:45:29;29.10;47.50
55777;DHT22;54079;44.540;18.784;2023-05-07T12:47:55;29.20;47.60
55777;DHT22;54079;44.540;18.784;2023-05-07T12:50:22;29.30;46.60
55777;DHT22;54079;44.540;18.784;2023-05-07T12:52:48;29.40;47.00
55777;DHT22;54079;44.540;18.784;2023-05-07T12:55:15;29.60;46.80
55777;DHT22;54079;44.540;18.784;2023-05-07T12:57:43;29.80;47.10
55777;DHT22;54079;44.540;18.784;2023-05-07T13:00:10;29.50;48.40
55777;DHT22;54079;44.540;18.784;2023-05-07T13:02:41;29.70;48.50
55777;DHT22;54079;44.540;18.784;2023-05-07T13:05:07;29.60;48.90
55777;DHT22;54079;44.540;18.784;2023-05-07T13:07:34;29.50;48.60
55777;DHT22;54079;44.540;18.784;2023-05-07T13:09:59;29.20;48.40
55777;DHT22;54079;44.540;18.784;2023-05-07T13:12:25;29.00;48.70
55777;DHT22;54079;44.540;18.784;2023-05-07T13:14:51;28.80;48.70
55777;DHT22;54079;44.540;18.784;2023-05-07T13:17:17;29.00;47.60
55777;DHT22;54079;44.540;18.784;2023-05-07T13:19:44;29.00;47.40
55777;DHT22;54079;44.540;18.784;2023-05-07T13:22:09;28.90;48.10
55777;DHT22;54079;44.540;18.784;2023-05-07T13:24:36;28.80;48.60
55777;DHT22;54079;44.540;18.784;2023-05-07T13:27:02;28.80;48.70
55777;DHT22;54079;44.540;18.784;2023-05-07T13:29:28;28.80;48.40
55777;DHT22;54079;44.540;18.784;2023-05-07T13:31:58;28.50;47.30
55777;DHT22;54079;44.540;18.784;2023-05-07T13:34:25;28.50;48.90
55777;DHT22;54079;44.540;18.784;2023-05-07T13:36:51;28.50;49.10
55777;DHT22;54079;44.540;18.784;2023-05-07T13:39:17;28.20;48.30
55777;DHT22;54079;44.540;18.784;2023-05-07T13:41:43;28.10;48.40
55777;DHT22;54079;44.540;18.784;2023-05-07T13:44:09;27.90;48.70
55777;DHT22;54079;44.540;18.784;2023-05-07T13:46:35;28.10;49.40
55777;DHT22;54079;44.540;18.784;2023-05-07T13:49:01;28.40;49.30
55777;DHT22;54079;44.540;18.784;2023-05-07T13:51:27;28.30;49.30
55777;DHT22;54079;44.540;18.784;2023-05-07T13:53:53;28.40;50.00
55777;DHT22;54079;44.540;18.784;2023-05-07T13:56:19;28.40;48.80
55777;DHT22;54079;44.540;18.784;2023-05-07T13:58:46;28.70;49.30
55777;DHT22;54079;44.540;18.784;2023-05-07T14:01:12;28.60;48.40
55777;DHT22;54079;44.540;18.784;2023-05-07T14:03:38;28.90;48.40
55777;DHT22;54079;44.540;18.784;2023-05-07T14:06:05;29.20;48.40
55777;DHT22;54079;44.540;18.784;2023-05-07T14:08:31;29.20;48.10
55777;DHT22;54079;44.540;18.784;2023-05-07T14:10:57;29.30;47.30
55777;DHT22;54079;44.540;18.784;2023-05-07T14:13:23;29.30;47.40
55777;DHT22;54079;44.540;18.784;2023-05-07T14:15:49;29.20;47.30
55777;DHT22;54079;44.540;18.784;2023-05-07T14:18:15;29.30;49.20
55777;DHT22;54079;44.540;18.784;2023-05-07T14:20:41;29.20;48.70
55777;DHT22;54079;44.540;18.784;2023-05-07T14:23:12;29.10;47.50
55777;DHT22;54079;44.540;18.784;2023-05-07T14:25:37;29.20;47.80
55777;DHT22;54079;44.540;18.784;2023-05-07T14:28:03;29.20;48.00
55777;DHT22;54079;44.540;18.784;2023-05-07T14:30:30;28.80;48.50
55777;DHT22;54079;44.540;18.784;2023-05-07T14:32:56;28.70;48.10
55777;DHT22;54079;44.540;18.784;2023-05-07T14:35:21;28.70;48.30
55777;DHT22;54079;44.540;18.784;2023-05-07T14:37:47;28.70;49.60
55777;DHT22;54079;44.540;18.784;2023-05-07T14:40:13;28.60;48.60
55777;DHT22;54079;44.540;18.784;2023-05-07T14:42:40;28.40;49.10
55777;DHT22;54079;44.540;18.784;2023-05-07T14:45:06;28.20;48.90
55777;DHT22;54079;44.540;18.784;2023-05-07T14:47:32;28.30;49.70
55777;DHT22;54079;44.540;18.784;2023-05-07T14:49:58;28.30;48.10
55777;DHT22;54079;44.540;18.784;2023-05-07T14:52:26;28.30;48.40
55777;DHT22;54079;44.540;18.784;2023-05-07T14:54:52;28.30;49.20
55777;DHT22;54079;44.540;18.784;2023-05-07T14:57:18;28.30;49.40
55777;DHT22;54079;44.540;18.784;2023-05-07T14:59:45;28.30;49.90
55777;DHT22;54079;44.540;18.784;2023-05-07T15:02:14;28.20;50.10
55777;DHT22;54079;44.540;18.784;2023-05-07T15:04:40;28.10;50.70
55777;DHT22;54079;44.540;18.784;2023-05-07T15:07:12;28.10;49.10
55777;DHT22;54079;44.540;18.784;2023-05-07T15:09:44;28.00;49.20
55777;DHT22;54079;44.540;18.784;2023-05-07T15:12:10;27.90;50.10
55777;DHT22;54079;44.540;18.784;2023-05-07T15:14:38;27.90;49.00
55777;DHT22;54079;44.540;18.784;2023-05-07T15:17:04;27.90;49.90
55777;DHT22;54079;44.540;18.784;2023-05-07T15:19:30;27.90;50.00
55777;DHT22;54079;44.540;18.784;2023-05-07T15:21:59;28.00;49.40
55777;DHT22;54079;44.540;18.784;2023-05-07T15:24:29;27.80;49.10
55777;DHT22;54079;44.540;18.784;2023-05-07T15:26:55;27.70;48.90
55777;DHT22;54079;44.540;18.784;2023-05-07T15:29:22;27.80;48.60
55777;DHT22;54079;44.540;18.784;2023-05-07T15:31:47;27.80;49.40
55777;DHT22;54079;44.540;18.784;2023-05-07T15:34:13;27.90;50.10
55777;DHT22;54079;44.540;18.784;2023-05-07T15:36:42;27.90;49.50